• Join FlightAware (Why Join?)
  • Login
  • US Flag 
11:11AM EST


 

Airport Tracker/Info


-or-


 

Live Flight TrackerFlight Track Log ✈ FLG3722 ✈ 24-Apr-2013 ✈ KCVG - KCLT

Flight Track Log - Related Links

Times and Time Zones

All times are in EDT time to prevent confusion due to time zone crossing. See the FLG3722 flight status page for this flight to view local times or setup timezone preferences in your user account.

Time Position Orientation Groundspeed Altitude Reporting Facility
EDT Latitude Longitude Course Direction KTS MPH feet Rate Location/Type
02:10PM 38.7697 -84.6078 163° South  Level FlightAware Approximate
02:10PM 38.8886 -84.6647 180° South 251 289 7,300  Level Indianapolis Center
02:11PM 38.6761 -84.5704 163° South  Level FlightAware Approximate
02:11PM 38.8161 -84.6464 169° South 263 303 10,100  Level Indianapolis Center
02:12PM 38.5808 -84.5409 167° South  Level FlightAware Approximate
02:12PM 38.7447 -84.6231 166° South 263 303 12,700  Level Indianapolis Center
02:13PM 38.4854 -84.5118 165° South  Level FlightAware Approximate
02:13PM 38.6703 -84.6306 184° South 267 307 12,900  Level Indianapolis Center
02:14PM 38.3886 -84.4981 177° South  Level FlightAware Approximate
02:14PM 38.5883 -84.6439 187° South 265 305 13,400  Level Indianapolis Center
02:15PM 38.2869 -84.4989 180° South  Level FlightAware Approximate
02:15PM 38.5111 -84.6547 186° South 275 316 14,700  Level Indianapolis Center
02:16PM 38.4344 -84.6575 182° South 273 314 16,300 1,440 Climbing Indianapolis Center
02:17PM 38.3575 -84.6342 167° South 281 323 17,700 1,440 Climbing Indianapolis Center
02:18PM 38.2800 -84.6136 168° South 283 326 19,300 1,260 Climbing Indianapolis Center
02:19PM 38.1867 -84.5903 169° South 296 341 20,300 840 Climbing Indianapolis Center
02:20PM 38.0975 -84.5714 171° South 320 368 21,100 720 Climbing Indianapolis Center
02:21PM 38.0050 -84.5494 169° South 337 388 21,800 660 Climbing Indianapolis Center
02:22PM 37.9075 -84.5286 170° South 352 405 22,500 660 Climbing Indianapolis Center
02:23PM 37.8067 -84.5064 170° South 364 419 23,200 660 Climbing Indianapolis Center
02:24PM 37.7058 -84.4836 170° South 368 423 23,900 720 Climbing Indianapolis Center
02:25PM 37.5864 -84.4572 170° South 372 428 24,800 780 Climbing Indianapolis Center
02:26PM 37.4842 -84.4353 170° South 373 429 25,500 660 Climbing Indianapolis Center
02:27PM 37.3800 -84.4142 171° South 378 435 26,200 660 Climbing Indianapolis Center
02:28PM 37.2767 -84.3939 171° South 377 434 26,900 360 Climbing Indianapolis Center
02:29PM 37.1719 -84.3736 171° South 382 440 27,000  Climbing Indianapolis Center
02:30PM 37.0439 -84.3478 171° South 397 457 27,000  Level Indianapolis Center
02:31PM 36.9317 -84.3294 173° South 406 467 27,000  Level Indianapolis Center
02:33PM 36.8175 -84.3108 173° South 412 474 27,000  Level Indianapolis Center
02:34PM 36.7011 -84.2703 164° South 437 503 27,000  Level Indianapolis Center
02:35PM 36.5950 -84.1825 146° Southeast 462 532 27,000  Level Indianapolis Center
02:36PM 36.4806 -84.1089 153° Southeast 447 514 27,000  Level Indianapolis Center
02:37PM 36.3700 -84.0422 154° Southeast 442 509 27,000  Level Indianapolis Center
02:38PM 36.2750 -83.9386 139° Southeast 484 557 27,000  Level Indianapolis Center
02:38PM 36.2250 -83.8278 119° Southeast 449 517 27,000  Level Atlanta Center
02:39PM 36.1558 -83.6786 120° Southeast 469 540 27,000  Level Atlanta Center
02:40PM 36.0886 -83.5325 120° Southeast 480 552 27,000  Level Atlanta Center
02:42PM 36.0083 -83.3328 116° Southeast 491 565 27,000  Level Atlanta Center
02:43PM 35.9739 -83.1689 105° East 491 565 27,000 -600 Level Atlanta Center
02:44PM 35.9414 -83.0025 104° East 491 565 25,800 -1,440 Descending Atlanta Center
02:45PM 35.9086 -82.8389 104° East 486 559 24,200 -900 Descending Atlanta Center
02:46PM 35.8778 -82.6831 104° East 479 551 24,000 -120 Descending Atlanta Center
02:47PM 35.8486 -82.5194 102° East 472 543 24,000 -720 Level Atlanta Center
02:48PM 35.8172 -82.3589 104° East 477 549 22,600 -1,620 Descending Atlanta Center
02:49PM 35.7944 -82.2108 101° East 458 527 20,800 -1,740 Descending Atlanta Center
02:50PM 35.7756 -82.0806 100° East 431 496 19,200 -1,800 Descending Atlanta Center
02:51PM 35.7569 -81.9506 100° East 397 457 17,300 -2,100 Descending Atlanta Center
02:52PM 35.7400 -81.8231 99° East 387 445 15,100 -2,280 Descending Atlanta Center
02:53PM 35.6919 -81.7042 116° Southeast 362 417 12,800 -2,100 Descending Atlanta Center
02:54PM 35.6336 -81.6036 125° Southeast 332 382 11,000 -1,020 Descending Atlanta Center
02:55PM 35.5822 -81.5389 134° Southeast 285 328 10,900 -600 Descending Atlanta Center
02:56PM 35.5242 -81.4614 133° Southeast 286 329 9,900 -1,440 Descending Atlanta Center
02:57PM 35.5033 -81.3653 105° East 335 386 8,000 -1,380 Descending Atlanta Center
02:58PM 35.5181 -81.2653 80° East 299 344 7,100 -600 Descending Atlanta Center
02:59PM 35.5342 -81.1575 80° East 309 356 6,900 -60 Descending Atlanta Center
03:00PM 35.5425 -81.0653 84° East 295 339 7,000 -600 Climbing Atlanta Center
03:01PM 35.5219 -80.9972 110° East 230 265 5,800 -1,140 Descending Atlanta Center
03:02PM 35.4758 -80.9861 169° South 151 174 4,800 -840 Descending Atlanta Center
03:03PM 35.4197 -80.9908 184° South 162 186 4,000 -720 Descending Atlanta Center